Time;durP1;ratioP1;P1;durP2;ratioP2;P2;SDS_P1;SDS_P2;PMS_P1;PMS_P2;Temp;Humidity;BMP_temperature;BMP_pressure;BME280_temperature;BME280_humidity;BME280_pressure;Samples;Min_cycle;Max_cycle;Signal;HPM_P1;HPM_P2
2023/02/17 00:03:04;;;;;;;20.63;8.80;;;9.90;99.90;;;;;;20460717;28;20074;-42
2023/02/17 00:13:25;;;;;;;13.48;7.15;;;10.00;99.90;;;;;;20456596;28;20372;-42
2023/02/17 00:23:48;;;;;;;18.80;7.60;;;10.00;99.90;;;;;;20458581;28;20817;-43
2023/02/17 00:34:10;;;;;;;28.88;9.32;;;10.00;99.90;;;;;;20460912;28;20130;-42
2023/02/17 00:44:30;;;;;;;14.40;7.80;;;9.90;99.90;;;;;;20478881;28;20315;-42
2023/02/17 00:54:51;;;;;;;15.05;7.00;;;9.90;99.90;;;;;;20467551;28;20668;-42
2023/02/17 01:05:12;;;;;;;21.15;10.63;;;9.80;99.90;;;;;;20466355;28;20221;-42
2023/02/17 01:15:38;;;;;;;13.50;8.43;;;9.70;99.90;;;;;;20480190;28;20130;-42
2023/02/17 01:25:59;;;;;;;17.00;10.77;;;9.60;99.90;;;;;;20473486;28;20566;-42
2023/02/17 01:36:20;;;;;;;19.65;9.77;;;9.60;99.90;;;;;;20472384;28;20161;-42
2023/02/17 01:46:53;;;;;;;22.65;10.45;;;9.50;99.90;;;;;;20478957;28;20137;-42
2023/02/17 01:57:17;;;;;;;17.83;10.88;;;9.40;99.90;;;;;;20475691;28;20134;-42
2023/02/17 02:07:41;;;;;;;18.48;9.60;;;9.30;99.90;;;;;;20487414;28;20122;-42
2023/02/17 02:18:33;;;;;;;13.38;7.95;;;9.30;99.90;;;;;;20468486;28;20046;-43
2023/02/17 02:29:26;;;;;;;17.38;7.68;;;9.30;99.90;;;;;;20494225;28;20560;-43
2023/02/17 02:39:53;;;;;;;18.38;8.57;;;9.20;99.90;;;;;;20487878;28;20088;-42
2023/02/17 02:50:19;;;;;;;14.30;7.90;;;9.20;99.90;;;;;;20479038;28;21182;-43
2023/02/17 03:00:52;;;;;;;14.63;8.23;;;9.10;99.90;;;;;;20468636;28;20081;-42
2023/02/17 03:11:14;;;;;;;23.20;8.00;;;9.10;99.90;;;;;;20459771;28;20038;-43
2023/02/17 03:21:39;;;;;;;13.27;7.28;;;9.20;99.90;;;;;;20462291;28;20093;-42
2023/02/17 03:32:00;;;;;;;11.00;6.65;;;9.20;99.90;;;;;;20459312;28;20097;-43
2023/02/17 03:42:21;;;;;;;11.80;7.18;;;9.20;99.90;;;;;;20455722;28;20324;-42
2023/02/17 03:52:43;;;;;;;12.80;7.45;;;9.30;99.90;;;;;;20475771;28;20581;-43
2023/02/17 04:03:05;;;;;;;12.00;7.10;;;9.30;99.90;;;;;;20470161;28;20723;-43
2023/02/17 04:13:27;;;;;;;21.08;10.00;;;9.30;99.90;;;;;;20479530;28;20039;-43
2023/02/17 04:23:48;;;;;;;20.33;9.52;;;9.40;99.90;;;;;;20480805;28;20638;-43
2023/02/17 04:34:09;;;;;;;20.00;11.98;;;9.50;99.90;;;;;;20473638;28;20198;-42
2023/02/17 04:44:30;;;;;;;20.33;11.73;;;9.60;99.90;;;;;;20488529;28;20074;-42
2023/02/17 04:54:51;;;;;;;18.13;9.55;;;9.60;99.90;;;;;;20483423;28;20665;-42
2023/02/17 05:05:15;;;;;;;15.35;8.07;;;9.70;99.90;;;;;;20486907;28;20190;-42
2023/02/17 05:15:36;;;;;;;16.05;8.13;;;9.80;99.90;;;;;;20477967;28;20125;-42
2023/02/17 05:25:57;;;;;;;15.35;8.57;;;9.90;99.90;;;;;;20485011;28;20121;-43
2023/02/17 05:36:18;;;;;;;15.95;8.63;;;10.00;99.90;;;;;;20469790;28;20097;-42
2023/02/17 05:46:39;;;;;;;26.45;8.40;;;10.10;99.90;;;;;;20477149;28;20133;-42
2023/02/17 05:57:00;;;;;;;14.77;9.82;;;10.10;99.90;;;;;;20474067;28;20191;-42
2023/02/17 06:07:21;;;;;;;20.58;9.38;;;10.10;99.90;;;;;;20477807;28;20554;-42
2023/02/17 06:17:42;;;;;;;19.00;12.38;;;10.10;99.90;;;;;;20480916;28;20192;-42
2023/02/17 06:28:03;;;;;;;17.70;8.80;;;10.10;99.90;;;;;;20488190;28;20059;-42
2023/02/17 06:38:24;;;;;;;14.13;8.15;;;10.10;99.90;;;;;;20485603;28;20080;-43
2023/02/17 06:48:45;;;;;;;13.18;6.25;;;10.20;99.90;;;;;;20490031;28;20130;-42
2023/02/17 06:59:06;;;;;;;24.02;8.70;;;10.20;99.90;;;;;;20486621;28;20153;-43
2023/02/17 07:09:27;;;;;;;13.45;6.53;;;10.30;99.90;;;;;;20482501;28;20139;-42
2023/02/17 07:19:48;;;;;;;12.45;7.28;;;10.40;99.90;;;;;;20456983;28;20133;-42
2023/02/17 07:30:10;;;;;;;14.55;7.22;;;10.40;99.90;;;;;;20465404;28;20063;-42
2023/02/17 07:40:30;;;;;;;12.00;6.13;;;10.60;99.90;;;;;;20455757;28;20137;-43
2023/02/17 07:50:51;;;;;;;13.70;6.10;;;10.60;99.90;;;;;;20451515;28;21238;-42
2023/02/17 08:01:21;;;;;;;8.95;3.85;;;10.80;99.90;;;;;;20466588;28;20050;-43
2023/02/17 08:21:42;;;;;;;7.93;4.93;;;10.90;99.90;;;;;;20486131;28;20051;-42
2023/02/17 08:31:43;;;;;;;9.02;2.55;;;10.80;99.90;;;;;;20480949;28;20043;-43
2023/02/17 08:41:45;;;;;;;4.90;3.03;;;10.80;99.90;;;;;;20484330;28;20046;-43
2023/02/17 08:51:47;;;;;;;5.47;2.92;;;10.80;99.90;;;;;;20467328;28;20047;-43
2023/02/17 09:01:48;;;;;;;8.82;4.53;;;10.80;99.90;;;;;;20476131;28;20046;-42
2023/02/17 09:11:49;;;;;;;6.15;2.92;;;10.80;99.90;;;;;;20479290;28;20039;-42
2023/02/17 09:21:51;;;;;;;8.48;3.42;;;10.80;99.90;;;;;;20447349;28;20066;-42
2023/02/17 09:31:52;;;;;;;6.03;2.85;;;10.90;99.90;;;;;;20480770;28;20487;-42
2023/02/17 09:41:54;;;;;;;7.75;4.07;;;10.90;99.90;;;;;;20489810;28;20059;-42
2023/02/17 09:52:06;;;;;;;7.65;3.97;;;11.00;99.90;;;;;;20482441;28;20445;-43
2023/02/17 10:02:18;;;;;;;12.18;3.78;;;11.10;99.90;;;;;;20479833;28;21301;-42
2023/02/17 10:12:24;;;;;;;6.32;3.55;;;11.30;99.90;;;;;;20476703;28;20035;-43
2023/02/17 10:22:26;;;;;;;8.52;2.75;;;11.30;99.90;;;;;;20499717;28;20050;-42
2023/02/17 10:32:27;;;;;;;8.57;3.28;;;11.40;99.90;;;;;;20489256;28;20062;-43
2023/02/17 10:42:37;;;;;;;4.05;2.00;;;11.50;99.90;;;;;;20486212;28;20542;-43
2023/02/17 10:52:40;;;;;;;7.72;2.53;;;11.60;99.90;;;;;;20489292;28;20058;-43
2023/02/17 11:02:43;;;;;;;7.93;2.95;;;11.60;99.90;;;;;;20492211;28;20399;-43
2023/02/17 11:12:45;;;;;;;6.97;2.40;;;11.70;99.90;;;;;;20491340;28;20039;-43
2023/02/17 11:23:03;;;;;;;6.15;2.10;;;11.70;99.90;;;;;;20479159;28;20043;-43
2023/02/17 11:33:16;;;;;;;4.45;2.05;;;11.60;99.90;;;;;;20485817;28;20039;-42
2023/02/17 11:43:20;;;;;;;7.47;2.90;;;11.50;99.90;;;;;;20480079;28;20392;-43
2023/02/17 11:53:33;;;;;;;3.75;1.80;;;11.50;99.90;;;;;;20492537;28;20035;-43
2023/02/17 12:03:52;;;;;;;4.70;2.00;;;11.30;99.90;;;;;;20479990;28;20054;-43
2023/02/17 12:14:24;;;;;;;8.95;1.60;;;11.30;99.90;;;;;;20478314;28;20039;-42
2023/02/17 12:24:42;;;;;;;7.13;2.97;;;11.30;99.90;;;;;;20480169;28;20047;-42
2023/02/17 12:34:52;;;;;;;4.93;1.75;;;11.20;99.90;;;;;;20495188;28;20039;-43
2023/02/17 12:44:59;;;;;;;8.55;3.55;;;11.20;99.90;;;;;;20493380;28;20150;-42
2023/02/17 12:55:23;;;;;;;5.13;2.78;;;11.20;99.90;;;;;;20487774;28;20038;-42
2023/02/17 13:05:32;;;;;;;6.65;2.13;;;11.30;99.90;;;;;;20491017;28;20051;-42
2023/02/17 13:15:45;;;;;;;6.07;2.88;;;11.60;99.00;;;;;;20494080;28;20034;-42
2023/02/17 13:26:02;;;;;;;5.50;2.58;;;11.60;97.40;;;;;;20485280;28;20043;-43
2023/02/17 13:36:34;;;;;;;7.28;2.63;;;11.50;96.10;;;;;;20490509;28;20062;-42
2023/02/17 13:46:36;;;;;;;5.15;2.03;;;11.40;96.80;;;;;;20488427;28;20074;-43
2023/02/17 13:56:38;;;;;;;10.20;2.50;;;11.50;96.90;;;;;;20490726;28;20054;-42
2023/02/17 14:06:39;;;;;;;4.57;1.90;;;11.40;98.40;;;;;;20486779;28;20050;-42
2023/02/17 14:16:43;;;;;;;4.10;1.73;;;11.50;96.30;;;;;;20487041;28;20498;-42
2023/02/17 14:26:47;;;;;;;12.82;2.50;;;11.70;96.30;;;;;;20441888;28;20054;-42
2023/02/17 14:36:48;;;;;;;5.97;2.45;;;11.90;86.30;;;;;;20478646;28;20034;-43
2023/02/17 14:46:49;;;;;;;4.28;1.83;;;12.20;77.90;;;;;;20474674;28;20051;-43
2023/02/17 14:57:05;;;;;;;4.22;1.80;;;12.40;64.50;;;;;;20481069;28;20628;-43
2023/02/17 15:07:13;;;;;;;6.97;2.65;;;12.20;71.30;;;;;;20474873;28;20395;-43
2023/02/17 15:17:15;;;;;;;5.20;2.50;;;12.10;82.40;;;;;;20478024;28;20049;-42
2023/02/17 15:27:16;;;;;;;4.22;1.90;;;12.20;73.90;;;;;;20437997;28;20318;-42
2023/02/17 15:37:18;;;;;;;9.05;2.38;;;12.10;76.00;;;;;;20468239;28;22377;-42
2023/02/17 15:47:19;;;;;;;10.40;3.28;;;11.90;78.40;;;;;;20474185;28;20146;-42
2023/02/17 15:57:24;;;;;;;4.20;1.95;;;11.70;88.60;;;;;;20491382;28;20482;-42
2023/02/17 16:07:25;;;;;;;12.65;2.88;;;11.60;94.70;;;;;;20481268;28;20497;-42
2023/02/17 16:17:26;;;;;;;8.38;3.70;;;11.50;98.80;;;;;;20479301;28;20051;-42
2023/02/17 16:27:27;;;;;;;18.13;4.35;;;11.40;99.90;;;;;;20479873;28;20054;-42
2023/02/17 16:37:28;;;;;;;8.93;4.00;;;11.30;99.90;;;;;;20436780;28;20398;-42
2023/02/17 16:47:29;;;;;;;8.02;2.90;;;11.20;99.90;;;;;;20463044;28;20047;-42
2023/02/17 16:57:30;;;;;;;7.88;2.80;;;11.00;99.90;;;;;;20477720;28;20524;-42
2023/02/17 17:07:32;;;;;;;4.90;2.35;;;11.00;99.90;;;;;;20484721;28;20252;-42
2023/02/17 17:17:41;;;;;;;9.63;2.90;;;10.90;99.90;;;;;;20489581;28;20046;-43
2023/02/17 17:27:43;;;;;;;7.18;2.70;;;10.80;99.90;;;;;;20497526;28;21492;-43
2023/02/17 17:37:45;;;;;;;7.63;3.17;;;10.80;99.90;;;;;;20495695;28;20047;-42
2023/02/17 17:47:46;;;;;;;6.15;2.00;;;10.90;99.90;;;;;;20494867;28;20043;-43
2023/02/17 17:57:47;;;;;;;6.93;2.78;;;10.90;99.90;;;;;;20445486;28;20066;-43
2023/02/17 18:07:49;;;;;;;11.27;3.22;;;11.00;99.90;;;;;;20490705;28;20431;-43
2023/02/17 18:17:51;;;;;;;6.22;3.10;;;11.00;99.90;;;;;;20491041;28;20409;-43
2023/02/17 18:27:52;;;;;;;4.13;2.40;;;10.90;99.90;;;;;;20477166;28;20418;-43
2023/02/17 18:37:54;;;;;;;8.85;2.13;;;11.00;99.90;;;;;;20483655;28;20499;-42
2023/02/17 18:47:55;;;;;;;12.68;4.05;;;11.10;99.90;;;;;;20486575;28;20534;-43
2023/02/17 18:57:56;;;;;;;8.13;3.20;;;11.10;99.90;;;;;;20480501;28;20415;-43
2023/02/17 19:07:57;;;;;;;9.35;3.65;;;11.00;99.90;;;;;;20479327;28;20047;-43
2023/02/17 19:17:58;;;;;;;14.70;6.43;;;10.90;99.90;;;;;;20474628;28;20039;-43
2023/02/17 19:27:59;;;;;;;15.00;3.65;;;10.80;99.90;;;;;;20478413;28;20058;-43
2023/02/17 19:38:00;;;;;;;8.73;4.00;;;10.60;99.90;;;;;;20472847;28;20046;-43
2023/02/17 19:48:02;;;;;;;8.23;4.10;;;10.50;99.90;;;;;;20468108;28;20054;-42
2023/02/17 19:58:03;;;;;;;12.73;4.68;;;10.50;99.90;;;;;;20467696;28;20043;-42
2023/02/17 20:08:05;;;;;;;6.55;2.60;;;10.50;99.90;;;;;;20469554;28;21571;-43
2023/02/17 20:18:06;;;;;;;7.38;3.08;;;10.50;99.90;;;;;;20476483;28;20035;-42
2023/02/17 20:28:07;;;;;;;12.80;4.22;;;10.40;99.90;;;;;;20459027;28;20049;-42
2023/02/17 20:38:08;;;;;;;9.95;4.10;;;10.40;99.90;;;;;;20470888;28;20042;-42
2023/02/17 20:48:09;;;;;;;4.97;2.67;;;10.40;99.90;;;;;;20472548;28;20510;-42
2023/02/17 20:58:11;;;;;;;5.53;3.38;;;10.40;99.90;;;;;;20483323;28;20046;-42
2023/02/17 21:08:12;;;;;;;6.40;4.38;;;10.50;99.90;;;;;;20477418;28;20050;-43
2023/02/17 21:18:13;;;;;;;7.75;3.85;;;10.50;99.90;;;;;;20477852;28;20050;-42
2023/02/17 21:28:14;;;;;;;12.68;5.07;;;10.40;99.90;;;;;;20486218;28;20039;-42
2023/02/17 21:38:17;;;;;;;14.13;4.15;;;10.40;99.90;;;;;;20488553;28;20533;-42
2023/02/17 21:48:18;;;;;;;9.82;5.05;;;10.40;99.90;;;;;;20491431;28;20043;-42
2023/02/17 21:58:19;;;;;;;8.63;4.32;;;10.30;99.90;;;;;;20479768;28;20043;-43
2023/02/17 22:08:20;;;;;;;12.55;4.55;;;10.30;99.90;;;;;;20490766;28;20433;-43
2023/02/17 22:18:21;;;;;;;9.10;4.22;;;10.40;99.90;;;;;;20490415;28;20546;-42
2023/02/17 22:28:22;;;;;;;7.93;3.22;;;10.20;99.90;;;;;;20485960;28;20043;-43
2023/02/17 22:38:23;;;;;;;14.50;4.15;;;10.20;99.90;;;;;;20477905;28;20058;-42
2023/02/17 22:48:24;;;;;;;8.70;4.25;;;10.00;99.90;;;;;;20480312;28;21434;-43
2023/02/17 22:58:26;;;;;;;8.27;4.50;;;9.90;99.90;;;;;;20473555;28;20040;-42
2023/02/17 23:08:27;;;;;;;11.10;5.63;;;9.90;99.90;;;;;;20477829;28;20038;-43
2023/02/17 23:18:31;;;;;;;10.90;4.28;;;9.90;99.90;;;;;;20481124;28;21453;-43
2023/02/17 23:28:33;;;;;;;23.77;6.97;;;10.00;99.90;;;;;;20479521;28;20061;-42
2023/02/17 23:38:34;;;;;;;11.23;5.10;;;10.00;99.90;;;;;;20486708;28;20041;-43
2023/02/17 23:48:35;;;;;;;15.00;5.60;;;10.10;99.90;;;;;;20475708;28;20860;-43
2023/02/17 23:58:36;;;;;;;29.55;8.57;;;10.20;99.90;;;;;;20477993;28;20054;-43
